createdAt,value
2022-12-18T00:00:08.530Z,17.30
2022-12-18T00:02:36.700Z,15.60
2022-12-18T00:05:05.072Z,16.63
2022-12-18T00:07:33.144Z,16.40
2022-12-18T00:10:01.189Z,16.93
2022-12-18T00:12:30.056Z,16.70
2022-12-18T00:14:59.828Z,18.63
2022-12-18T00:17:27.831Z,15.93
2022-12-18T00:19:55.879Z,15.20
2022-12-18T00:22:23.909Z,15.87
2022-12-18T00:24:51.939Z,16.40
2022-12-18T00:27:19.992Z,16.50
2022-12-18T00:29:48.039Z,16.57
2022-12-18T00:32:17.447Z,15.83
2022-12-18T00:34:45.712Z,14.40
2022-12-18T00:37:19.719Z,14.70
2022-12-18T00:39:50.437Z,16.00
2022-12-18T00:42:32.516Z,14.90
2022-12-18T00:45:00.611Z,13.17
2022-12-18T00:47:30.006Z,13.57
2022-12-18T00:49:58.038Z,13.80
2022-12-18T00:52:26.096Z,13.83
2022-12-18T00:54:54.192Z,15.03
2022-12-18T00:57:22.225Z,13.83
2022-12-18T00:59:50.352Z,14.17
2022-12-18T01:02:18.739Z,12.43
2022-12-18T01:04:48.294Z,14.37
2022-12-18T01:07:16.314Z,12.40
2022-12-18T01:09:44.422Z,11.27
2022-12-18T01:12:12.433Z,11.40
2022-12-18T01:14:40.480Z,12.87
2022-12-18T01:17:08.520Z,11.83
2022-12-18T01:19:37.248Z,11.93
2022-12-18T01:22:06.786Z,11.40
2022-12-18T01:24:34.867Z,12.43
2022-12-18T01:27:02.871Z,9.83
2022-12-18T01:29:31.035Z,11.50
2022-12-18T01:31:59.204Z,10.63
2022-12-18T01:34:27.297Z,10.37
2022-12-18T01:36:55.371Z,10.60
2022-12-18T01:39:24.762Z,11.73
2022-12-18T01:42:06.691Z,10.80
2022-12-18T01:44:58.111Z,11.47
2022-12-18T01:47:29.527Z,10.37
2022-12-18T01:49:59.738Z,11.23
2022-12-18T01:52:30.460Z,11.03
2022-12-18T01:55:01.115Z,10.53
2022-12-18T01:57:30.192Z,10.70
2022-12-18T02:00:02.550Z,11.93
2022-12-18T02:02:31.772Z,11.33
2022-12-18T02:05:00.434Z,10.23
2022-12-18T02:07:39.648Z,11.10
2022-12-18T02:10:15.952Z,10.13
2022-12-18T02:12:51.348Z,9.17
2022-12-18T02:15:29.129Z,11.07
2022-12-18T02:18:00.460Z,9.67
2022-12-18T02:20:35.339Z,8.83
2022-12-18T02:23:12.909Z,9.13
2022-12-18T02:26:04.694Z,8.87
2022-12-18T02:28:35.647Z,9.83
2022-12-18T02:31:08.386Z,9.33
2022-12-18T02:33:38.310Z,9.70
2022-12-18T02:36:07.546Z,9.97
2022-12-18T02:38:36.932Z,9.53
2022-12-18T02:41:07.590Z,8.87
2022-12-18T02:43:35.862Z,8.73
2022-12-18T02:46:32.324Z,9.30
2022-12-18T02:49:08.549Z,9.23
2022-12-18T02:51:43.175Z,8.93
2022-12-18T02:54:19.880Z,8.80
2022-12-18T02:56:56.261Z,8.67
2022-12-18T02:59:32.053Z,9.03
2022-12-18T03:07:25.488Z,9.30
2022-12-18T03:09:55.155Z,7.50
2022-12-18T03:12:30.689Z,8.33
2022-12-18T03:15:04.565Z,9.30
2022-12-18T03:17:35.399Z,7.87
2022-12-18T03:20:08.114Z,8.53
2022-12-18T03:22:39.480Z,8.73
2022-12-18T03:25:10.940Z,7.47
2022-12-18T03:27:45.817Z,8.00
2022-12-18T03:30:15.878Z,7.50
2022-12-18T03:32:48.774Z,7.33
2022-12-18T03:35:21.893Z,7.27
2022-12-18T03:37:50.092Z,7.47
2022-12-18T03:41:10.738Z,7.50
2022-12-18T03:43:51.386Z,6.97
2022-12-18T03:46:27.731Z,7.67
2022-12-18T03:49:02.185Z,7.97
2022-12-18T03:51:39.592Z,7.60
2022-12-18T03:54:11.116Z,6.60
2022-12-18T03:56:42.551Z,8.33
2022-12-18T03:59:14.634Z,7.80
2022-12-18T04:01:47.380Z,6.43
2022-12-18T04:04:17.415Z,7.23
2022-12-18T04:06:47.426Z,7.70
2022-12-18T04:09:15.981Z,7.43
2022-12-18T04:11:44.832Z,7.00
2022-12-18T04:14:17.556Z,7.40
2022-12-18T04:16:46.301Z,6.93
2022-12-18T04:19:14.549Z,7.80
2022-12-18T04:21:42.674Z,7.17
2022-12-18T04:24:10.754Z,7.17
2022-12-18T04:26:39.376Z,6.20
2022-12-18T04:29:07.399Z,6.43
2022-12-18T04:31:36.830Z,6.13
2022-12-18T04:34:05.158Z,6.80
2022-12-18T04:36:33.212Z,7.90
2022-12-18T04:39:01.499Z,6.13
2022-12-18T04:41:29.538Z,6.73
2022-12-18T04:43:57.540Z,6.50
2022-12-18T04:46:25.702Z,6.47
2022-12-18T04:48:55.168Z,6.63
2022-12-18T04:51:26.313Z,5.90
2022-12-18T04:53:55.248Z,6.77
2022-12-18T04:56:23.819Z,6.80
2022-12-18T04:58:51.949Z,6.43
2022-12-18T05:01:21.099Z,6.33
2022-12-18T05:03:49.336Z,6.23
2022-12-18T05:06:18.771Z,6.70
2022-12-18T05:08:46.847Z,6.27
2022-12-18T05:11:17.033Z,5.83
2022-12-18T05:13:46.127Z,6.17
2022-12-18T05:16:15.414Z,6.43
2022-12-18T05:18:44.017Z,7.17
2022-12-18T05:21:13.171Z,6.43
2022-12-18T05:23:43.064Z,6.13
2022-12-18T05:26:16.147Z,6.43
2022-12-18T05:28:44.755Z,6.57
2022-12-18T05:31:13.316Z,7.27
2022-12-18T05:33:41.627Z,8.20
2022-12-18T05:36:10.760Z,7.17
2022-12-18T05:38:40.235Z,7.80
2022-12-18T05:41:10.321Z,8.20
2022-12-18T05:43:40.173Z,7.37
2022-12-18T05:46:09.787Z,8.77
2022-12-18T05:48:37.805Z,7.97
2022-12-18T05:51:08.363Z,6.83
2022-12-18T05:53:38.310Z,8.77
2022-12-18T05:56:09.807Z,7.63
2022-12-18T05:58:38.724Z,7.50
2022-12-18T06:01:12.073Z,8.17
2022-12-18T06:03:41.145Z,8.97
2022-12-18T06:06:16.099Z,7.43
2022-12-18T06:08:46.415Z,7.30
2022-12-18T06:11:19.869Z,7.20
2022-12-18T06:13:47.978Z,7.20
2022-12-18T06:16:16.081Z,7.07
2022-12-18T06:18:44.155Z,7.40
2022-12-18T06:21:12.263Z,7.80
2022-12-18T06:23:40.862Z,6.73
2022-12-18T06:26:10.925Z,6.50
2022-12-18T06:28:40.721Z,7.23
2022-12-18T06:31:09.786Z,6.80
2022-12-18T06:33:38.743Z,7.47
2022-12-18T06:36:09.807Z,7.67
2022-12-18T06:38:43.494Z,6.10
2022-12-18T06:41:13.267Z,6.63
2022-12-18T06:43:43.226Z,7.47
2022-12-18T06:46:11.966Z,7.23
2022-12-18T06:48:40.292Z,7.53
2022-12-18T06:51:08.626Z,7.07
2022-12-18T06:53:36.910Z,6.93
2022-12-18T06:56:09.868Z,7.97
2022-12-18T06:58:38.610Z,7.03
2022-12-18T07:01:09.922Z,8.07
2022-12-18T07:03:38.567Z,7.00
2022-12-18T07:06:07.376Z,7.27
2022-12-18T07:08:36.277Z,7.27
2022-12-18T07:11:06.561Z,7.57
2022-12-18T07:13:34.621Z,6.43
2022-12-18T07:16:16.033Z,6.63
2022-12-18T07:18:47.353Z,7.50
2022-12-18T07:21:17.100Z,7.10
2022-12-18T07:23:45.778Z,7.40
2022-12-18T07:26:16.574Z,7.83
2022-12-18T07:28:44.785Z,6.30
2022-12-18T07:31:15.994Z,6.43
2022-12-18T07:33:45.390Z,6.70
2022-12-18T07:36:13.553Z,6.43
2022-12-18T07:38:41.877Z,6.97
2022-12-18T07:41:11.765Z,6.93
2022-12-18T07:43:41.443Z,6.27
2022-12-18T07:46:11.820Z,7.10
2022-12-18T07:48:43.769Z,5.87
2022-12-18T07:51:13.697Z,5.93
2022-12-18T07:53:42.686Z,6.10
2022-12-18T07:56:29.615Z,5.87
2022-12-18T07:58:58.903Z,6.73
2022-12-18T08:01:27.477Z,7.07
2022-12-18T08:03:57.115Z,6.50
2022-12-18T08:06:25.292Z,7.43
2022-12-18T08:08:54.668Z,6.73
2022-12-18T08:11:23.461Z,6.87
2022-12-18T08:13:51.490Z,6.43
2022-12-18T08:16:20.742Z,6.83
2022-12-18T08:18:49.643Z,6.63
2022-12-18T08:21:22.193Z,6.57
2022-12-18T08:23:51.652Z,6.67
2022-12-18T08:26:21.007Z,5.90
2022-12-18T08:28:49.958Z,6.70
2022-12-18T08:31:19.504Z,7.27
2022-12-18T08:33:50.002Z,5.80
2022-12-18T08:36:19.495Z,7.67
2022-12-18T08:38:47.862Z,7.67
2022-12-18T08:41:17.850Z,6.00
2022-12-18T08:44:03.365Z,5.33
2022-12-18T08:46:36.244Z,5.57
2022-12-18T08:49:05.092Z,5.60
2022-12-18T08:51:34.983Z,6.63
2022-12-18T08:54:03.216Z,6.80
2022-12-18T08:56:32.999Z,5.93
2022-12-18T08:59:01.365Z,5.60
2022-12-18T09:01:29.660Z,6.13
2022-12-18T09:03:57.896Z,5.87
2022-12-18T09:06:27.535Z,6.10
2022-12-18T09:08:57.022Z,6.43
2022-12-18T09:11:27.331Z,5.93
2022-12-18T09:13:57.187Z,5.17
2022-12-18T09:16:31.690Z,6.77
2022-12-18T09:19:01.339Z,5.63
2022-12-18T09:21:31.012Z,6.03
2022-12-18T09:24:00.575Z,6.00
2022-12-18T09:31:12.317Z,5.80
2022-12-18T09:33:40.589Z,5.57
2022-12-18T09:36:11.206Z,5.37
2022-12-18T09:38:39.539Z,6.70
2022-12-18T09:41:25.742Z,5.70
2022-12-18T09:43:59.427Z,5.47
2022-12-18T09:46:32.448Z,5.90
2022-12-18T09:49:03.481Z,6.73
2022-12-18T09:51:37.430Z,6.00
2022-12-18T09:54:09.183Z,6.40
2022-12-18T09:56:43.766Z,5.40
2022-12-18T09:59:23.377Z,5.33
2022-12-18T10:01:51.662Z,5.90
2022-12-18T10:04:19.999Z,4.57
2022-12-18T10:06:56.789Z,7.17
2022-12-18T10:09:33.325Z,6.23
2022-12-18T10:12:10.717Z,5.97
2022-12-18T10:14:48.697Z,6.93
2022-12-18T10:17:26.107Z,6.27
2022-12-18T10:19:58.126Z,5.60
2022-12-18T10:22:45.926Z,6.03
2022-12-18T10:25:27.438Z,6.10
2022-12-18T10:27:59.838Z,6.23
2022-12-18T10:30:29.241Z,5.27
2022-12-18T10:33:02.997Z,5.70
2022-12-18T10:35:31.456Z,6.90
2022-12-18T10:38:04.691Z,6.30
2022-12-18T10:40:33.655Z,5.33
2022-12-18T10:43:15.492Z,5.87
2022-12-18T10:45:44.483Z,5.50
2022-12-18T10:48:21.899Z,6.63
2022-12-18T10:53:43.924Z,6.13
2022-12-18T10:56:12.781Z,5.60
2022-12-18T10:58:42.638Z,6.50
2022-12-18T11:01:13.814Z,6.33
2022-12-18T11:03:44.365Z,6.37
2022-12-18T11:06:14.812Z,4.93
2022-12-18T11:08:45.430Z,6.57
2022-12-18T11:11:23.381Z,6.57
2022-12-18T11:14:03.025Z,6.93
2022-12-18T11:16:35.744Z,5.50
2022-12-18T11:19:25.224Z,7.43
2022-12-18T11:21:53.503Z,7.07
2022-12-18T11:24:27.418Z,6.13
2022-12-18T11:26:59.639Z,6.07
2022-12-18T11:29:35.255Z,6.40
2022-12-18T11:32:32.160Z,6.53
2022-12-18T11:35:06.187Z,5.93
2022-12-18T11:37:35.086Z,6.17
2022-12-18T11:40:10.232Z,6.07
2022-12-18T11:42:41.713Z,6.67
2022-12-18T11:45:28.692Z,6.00
2022-12-18T11:48:01.208Z,6.87
2022-12-18T11:50:35.798Z,6.00
2022-12-18T11:53:06.466Z,6.50
2022-12-18T11:55:42.695Z,6.43
2022-12-18T11:58:17.302Z,6.47
2022-12-18T12:00:53.890Z,6.60
2022-12-18T12:03:42.225Z,6.27
2022-12-18T12:06:17.780Z,7.03
2022-12-18T12:09:05.814Z,6.63
2022-12-18T12:11:44.948Z,6.57
2022-12-18T12:14:28.152Z,6.63
2022-12-18T12:17:02.663Z,6.73
2022-12-18T12:19:41.533Z,6.60
2022-12-18T12:22:17.535Z,6.53
2022-12-18T12:24:58.430Z,7.13
2022-12-18T12:27:40.762Z,6.60
2022-12-18T12:30:11.560Z,6.57
2022-12-18T12:32:56.162Z,6.67
2022-12-18T12:35:44.838Z,6.70
2022-12-18T12:38:15.835Z,6.27
2022-12-18T12:40:54.914Z,6.90
2022-12-18T12:43:32.221Z,6.30
2022-12-18T12:46:04.723Z,6.13
2022-12-18T12:48:44.438Z,7.37
2022-12-18T12:51:21.395Z,7.13
2022-12-18T12:53:50.738Z,7.10
2022-12-18T12:56:22.222Z,7.33
2022-12-18T12:59:00.082Z,7.37
2022-12-18T13:01:37.468Z,6.87
2022-12-18T13:04:17.496Z,7.07
2022-12-18T13:06:50.085Z,6.97
2022-12-18T13:09:18.410Z,7.57
2022-12-18T13:12:06.161Z,7.53
2022-12-18T13:14:37.335Z,5.97
2022-12-18T13:17:30.375Z,6.87
2022-12-18T13:20:12.347Z,7.00
2022-12-18T13:22:48.828Z,7.13
2022-12-18T13:25:40.663Z,7.57
2022-12-18T13:28:12.590Z,7.23
2022-12-18T13:30:49.653Z,7.13
2022-12-18T13:34:16.449Z,7.03
2022-12-18T13:36:36.196Z,6.57
2022-12-18T13:39:29.949Z,7.90
2022-12-18T13:42:55.918Z,7.17
2022-12-18T13:45:47.982Z,7.20
2022-12-18T13:48:25.608Z,6.33
2022-12-18T13:50:59.283Z,7.80
2022-12-18T13:53:31.895Z,8.30
2022-12-18T13:56:00.320Z,7.27
2022-12-18T13:58:28.658Z,7.07
2022-12-18T14:00:57.750Z,7.50
2022-12-18T14:03:28.834Z,7.47
2022-12-18T14:06:01.660Z,6.93
2022-12-18T14:08:37.820Z,8.03
2022-12-18T14:11:07.956Z,7.90
2022-12-18T14:13:41.681Z,6.77
2022-12-18T14:16:15.899Z,6.93
2022-12-18T14:18:47.266Z,8.13
2022-12-18T14:21:22.864Z,7.13
2022-12-18T14:24:06.660Z,8.03
2022-12-18T14:26:35.097Z,7.93
2022-12-18T14:29:20.578Z,7.70
2022-12-18T14:32:11.778Z,7.73
2022-12-18T14:34:43.214Z,8.00
2022-12-18T14:37:12.503Z,8.30
2022-12-18T14:39:42.146Z,7.83
2022-12-18T14:42:13.538Z,7.47
2022-12-18T14:45:05.152Z,7.97
2022-12-18T14:47:29.721Z,7.50
2022-12-18T14:49:57.874Z,9.17
2022-12-18T14:52:33.793Z,7.43
2022-12-18T14:55:03.373Z,7.70
2022-12-18T14:57:38.840Z,7.20
2022-12-18T15:00:08.834Z,8.63
2022-12-18T15:02:38.466Z,8.33
2022-12-18T15:05:18.013Z,8.50
2022-12-18T15:07:48.158Z,8.97
2022-12-18T15:10:21.085Z,9.27
2022-12-18T15:12:50.417Z,8.57
2022-12-18T15:15:47.837Z,7.87
2022-12-18T15:18:18.881Z,7.97
2022-12-18T15:20:50.032Z,8.63
2022-12-18T15:23:21.490Z,8.80
2022-12-18T15:25:59.436Z,7.73
2022-12-18T15:28:31.300Z,7.93
2022-12-18T15:31:08.074Z,8.90
2022-12-18T15:33:38.547Z,8.63
2022-12-18T15:36:11.230Z,8.27
2022-12-18T15:38:39.291Z,9.33
2022-12-18T15:41:17.844Z,8.57
2022-12-18T15:43:50.146Z,8.80
2022-12-18T15:46:19.982Z,9.53
2022-12-18T15:48:51.285Z,8.63
2022-12-18T15:51:21.135Z,8.80
2022-12-18T15:53:50.679Z,9.77
2022-12-18T15:56:37.775Z,8.77
2022-12-18T15:59:12.086Z,8.50
2022-12-18T16:01:42.697Z,9.23
2022-12-18T16:04:13.937Z,8.83
2022-12-18T16:07:12.650Z,9.57
2022-12-18T16:09:30.641Z,9.40
2022-12-18T16:12:02.771Z,9.23
2022-12-18T16:14:32.127Z,9.20
2022-12-18T16:17:02.318Z,9.67
2022-12-18T16:19:31.248Z,9.07
2022-12-18T16:22:00.741Z,7.67
2022-12-18T16:24:31.315Z,9.80
2022-12-18T16:27:02.229Z,9.40
2022-12-18T16:29:31.071Z,9.10
2022-12-18T16:32:00.717Z,9.37
2022-12-18T16:34:32.914Z,9.00
2022-12-18T16:37:06.047Z,9.87
2022-12-18T16:39:35.346Z,9.07
2022-12-18T16:42:07.205Z,9.20
2022-12-18T16:44:35.977Z,9.90
2022-12-18T16:47:04.665Z,10.17
2022-12-18T16:49:33.492Z,9.87
2022-12-18T16:52:01.602Z,10.73
2022-12-18T16:54:30.451Z,9.33
2022-12-18T16:56:58.865Z,9.30
2022-12-18T16:59:29.225Z,10.03
2022-12-18T17:01:58.415Z,9.73
2022-12-18T17:04:26.761Z,10.83
2022-12-18T17:06:54.878Z,9.47
2022-12-18T17:09:26.177Z,10.60
2022-12-18T17:11:54.860Z,11.17
2022-12-18T17:14:25.108Z,10.23
2022-12-18T17:17:19.713Z,10.17
2022-12-18T17:19:43.320Z,10.27
2022-12-18T17:22:11.449Z,10.43
2022-12-18T17:24:39.514Z,10.57
2022-12-18T17:27:08.889Z,10.90
2022-12-18T17:29:39.127Z,10.90
2022-12-18T17:32:13.229Z,10.57
2022-12-18T17:34:41.614Z,10.37
2022-12-18T17:37:10.058Z,11.00
2022-12-18T17:39:38.461Z,12.10
2022-12-18T17:42:06.910Z,9.93
2022-12-18T17:44:36.592Z,11.17
2022-12-18T17:47:06.141Z,10.73
2022-12-18T17:49:35.892Z,11.03
2022-12-18T17:52:04.012Z,10.77
2022-12-18T17:54:33.151Z,10.47
2022-12-18T17:57:01.314Z,11.07
2022-12-18T17:59:29.387Z,11.27
2022-12-18T18:01:57.744Z,11.17
2022-12-18T18:04:26.003Z,10.13
2022-12-18T18:06:55.543Z,10.73
2022-12-18T18:09:23.618Z,11.77
2022-12-18T18:12:09.153Z,11.03
2022-12-18T18:14:37.437Z,10.47
2022-12-18T18:17:08.188Z,11.37
2022-12-18T18:19:36.395Z,11.33
2022-12-18T18:22:05.805Z,10.53
2022-12-18T18:24:34.885Z,11.30
2022-12-18T18:27:02.921Z,10.73
2022-12-18T18:29:31.437Z,11.00
2022-12-18T18:32:00.290Z,11.87
2022-12-18T18:34:30.696Z,12.27
2022-12-18T18:36:59.167Z,11.83
2022-12-18T18:39:28.857Z,10.63
2022-12-18T18:41:57.380Z,11.37
2022-12-18T18:44:26.455Z,11.93
2022-12-18T18:46:56.283Z,11.30
2022-12-18T18:49:27.191Z,10.83
2022-12-18T18:51:56.032Z,11.50
2022-12-18T18:54:24.158Z,12.20
2022-12-18T18:57:19.488Z,10.00
2022-12-18T18:59:42.302Z,10.33
2022-12-18T19:02:13.486Z,11.23
2022-12-18T19:04:46.026Z,11.17
2022-12-18T19:07:22.556Z,10.87
2022-12-18T19:10:05.033Z,11.00
2022-12-18T19:12:52.644Z,11.20
2022-12-18T19:15:21.628Z,10.93
2022-12-18T19:17:50.029Z,11.00
2022-12-18T19:20:18.553Z,11.47
2022-12-18T19:22:54.898Z,12.30
2022-12-18T19:25:38.665Z,10.97
2022-12-18T19:28:21.444Z,11.07
2022-12-18T19:30:57.587Z,11.70
2022-12-18T19:33:44.361Z,12.27
2022-12-18T19:36:15.522Z,11.67
2022-12-18T19:38:45.395Z,10.57
2022-12-18T19:41:14.815Z,12.77
2022-12-18T19:43:44.674Z,12.27
2022-12-18T19:46:15.449Z,11.53
2022-12-18T19:48:45.220Z,12.23
2022-12-18T19:51:16.356Z,11.53
2022-12-18T19:53:44.693Z,10.93
2022-12-18T19:56:15.958Z,11.67
2022-12-18T19:58:45.971Z,12.23
2022-12-18T20:01:16.237Z,14.23
2022-12-18T20:03:46.959Z,12.07
2022-12-18T20:06:25.667Z,12.80
2022-12-18T20:09:00.308Z,12.23
2022-12-18T20:11:29.393Z,12.77
2022-12-18T20:14:03.424Z,12.83
2022-12-18T20:16:31.879Z,11.87
2022-12-18T20:19:00.556Z,12.37
2022-12-18T20:21:28.789Z,12.73
2022-12-18T20:23:57.153Z,11.37
2022-12-18T20:26:25.885Z,13.03
2022-12-18T20:28:55.499Z,11.47
2022-12-18T20:31:25.272Z,12.27
2022-12-18T20:33:54.390Z,11.80
2022-12-18T20:36:24.653Z,13.70
2022-12-18T20:38:57.315Z,13.40
2022-12-18T20:41:37.579Z,13.20
2022-12-18T20:44:11.009Z,13.33
2022-12-18T20:46:52.451Z,13.30
2022-12-18T20:49:20.496Z,12.83
2022-12-18T20:51:51.862Z,14.43
2022-12-18T20:54:19.911Z,12.93
2022-12-18T20:56:48.013Z,13.17
2022-12-18T20:59:16.201Z,14.87
2022-12-18T21:01:48.580Z,13.70
2022-12-18T21:04:19.073Z,15.83
2022-12-18T21:06:50.998Z,14.17
2022-12-18T21:09:20.554Z,13.30
2022-12-18T21:12:05.884Z,13.60
2022-12-18T21:14:34.111Z,13.40
2022-12-18T21:17:02.391Z,13.77
2022-12-18T21:19:32.081Z,14.43
2022-12-18T21:22:00.345Z,15.53
2022-12-18T21:24:30.603Z,14.23
2022-12-18T21:27:01.926Z,13.83
2022-12-18T21:29:30.239Z,14.60
2022-12-18T21:31:58.459Z,15.13
2022-12-18T21:34:28.356Z,14.00
2022-12-18T21:36:59.872Z,14.30
2022-12-18T21:39:29.962Z,14.47
2022-12-18T21:42:16.019Z,15.23
2022-12-18T21:44:45.171Z,15.10
2022-12-18T21:47:21.370Z,14.20
2022-12-18T21:49:50.589Z,15.70
2022-12-18T21:52:20.136Z,13.40
2022-12-18T21:54:51.875Z,15.47
2022-12-18T21:57:19.933Z,15.63
2022-12-18T21:59:48.838Z,15.53
2022-12-18T22:02:19.237Z,15.57
2022-12-18T22:04:48.120Z,15.53
2022-12-18T22:07:17.876Z,15.83
2022-12-18T22:09:48.405Z,14.67
2022-12-18T22:12:35.343Z,15.67
2022-12-18T22:15:05.429Z,15.67
2022-12-18T22:17:33.517Z,15.27
2022-12-18T22:20:01.571Z,15.40
2022-12-18T22:22:29.621Z,14.60
2022-12-18T22:24:59.035Z,16.10
2022-12-18T22:27:27.070Z,17.37
2022-12-18T22:30:06.143Z,16.57
2022-12-18T22:32:35.637Z,17.57
2022-12-18T22:35:10.409Z,16.87
2022-12-18T22:37:42.271Z,17.40
2022-12-18T22:40:23.847Z,15.83
2022-12-18T22:42:53.842Z,17.67
2022-12-18T22:45:25.109Z,16.43
2022-12-18T22:47:53.225Z,16.10
2022-12-18T22:50:21.364Z,17.50
2022-12-18T22:52:49.425Z,17.53
2022-12-18T22:55:18.934Z,16.80
2022-12-18T22:57:48.998Z,17.00
2022-12-18T23:00:17.940Z,17.33
2022-12-18T23:02:59.314Z,15.47
2022-12-18T23:05:28.905Z,17.00
2022-12-18T23:07:57.234Z,16.57
2022-12-18T23:10:26.732Z,17.27
2022-12-18T23:12:54.832Z,16.17
2022-12-18T23:15:27.588Z,17.13
2022-12-18T23:17:56.020Z,17.73
2022-12-18T23:20:24.089Z,17.17
2022-12-18T23:22:52.132Z,18.30
2022-12-18T23:25:20.700Z,19.03
2022-12-18T23:27:50.422Z,18.07
2022-12-18T23:30:18.618Z,17.87
2022-12-18T23:32:46.677Z,17.30
2022-12-18T23:35:15.700Z,19.00
2022-12-18T23:38:00.481Z,17.97
2022-12-18T23:40:30.050Z,17.77
2022-12-18T23:43:00.340Z,18.70
2022-12-18T23:45:28.606Z,18.13
2022-12-18T23:47:56.639Z,16.70
2022-12-18T23:50:29.315Z,18.27
2022-12-18T23:53:05.603Z,17.73
2022-12-18T23:55:35.565Z,18.47
2022-12-18T23:58:05.027Z,19.10
